createdAt,value
2022-11-07T00:02:06.324Z,12.50
2022-11-07T00:04:36.583Z,12.50
2022-11-07T00:07:05.551Z,12.50
2022-11-07T00:09:33.646Z,12.40
2022-11-07T00:12:01.703Z,12.50
2022-11-07T00:14:29.737Z,12.30
2022-11-07T00:16:57.813Z,12.40
2022-11-07T00:19:25.780Z,12.40
2022-11-07T00:21:55.206Z,12.60
2022-11-07T00:24:23.250Z,12.50
2022-11-07T00:26:51.344Z,12.50
2022-11-07T00:29:21.021Z,12.40
2022-11-07T00:31:49.995Z,12.50
2022-11-07T00:34:18.475Z,12.50
2022-11-07T00:36:46.475Z,12.50
2022-11-07T00:39:16.121Z,12.40
2022-11-07T00:41:44.099Z,12.40
2022-11-07T00:44:12.157Z,12.40
2022-11-07T00:46:40.136Z,12.50
2022-11-07T00:49:08.167Z,12.50
2022-11-07T00:51:36.214Z,12.50
2022-11-07T00:54:04.806Z,12.50
2022-11-07T00:56:34.207Z,12.60
2022-11-07T00:59:02.404Z,12.60
2022-11-07T01:01:32.598Z,12.70
2022-11-07T01:04:18.171Z,12.70
2022-11-07T01:06:47.099Z,12.70
2022-11-07T01:09:17.287Z,12.60
2022-11-07T01:11:47.621Z,12.60
2022-11-07T01:14:16.796Z,12.60
2022-11-07T01:16:45.102Z,12.70
2022-11-07T01:19:13.374Z,12.60
2022-11-07T01:21:43.002Z,12.60
2022-11-07T01:24:13.311Z,12.60
2022-11-07T01:26:42.470Z,12.50
2022-11-07T01:29:11.918Z,12.50
2022-11-07T01:31:39.973Z,12.50
2022-11-07T01:34:08.084Z,12.50
2022-11-07T01:36:36.430Z,12.60
2022-11-07T01:39:05.500Z,12.60
2022-11-07T01:41:35.533Z,12.70
2022-11-07T01:44:05.885Z,12.70
2022-11-07T01:46:36.982Z,12.90
2022-11-07T01:49:09.870Z,12.80
2022-11-07T01:51:45.877Z,12.70
2022-11-07T01:54:16.440Z,12.70
2022-11-07T01:56:45.725Z,12.90
2022-11-07T01:59:17.453Z,12.80
2022-11-07T02:01:51.154Z,12.90
2022-11-07T02:04:22.949Z,12.80
2022-11-07T02:06:55.690Z,12.90
2022-11-07T02:09:23.786Z,12.80
2022-11-07T02:11:52.722Z,12.90
2022-11-07T02:14:21.010Z,12.80
2022-11-07T02:16:50.423Z,12.90
2022-11-07T02:19:26.749Z,12.90
2022-11-07T02:22:00.552Z,12.90
2022-11-07T02:24:34.193Z,12.90
2022-11-07T02:27:07.070Z,13.00
2022-11-07T02:29:38.927Z,13.00
2022-11-07T02:32:08.582Z,12.90
2022-11-07T02:34:37.250Z,12.90
2022-11-07T02:37:10.828Z,12.80
2022-11-07T02:39:40.214Z,12.90
2022-11-07T02:42:08.528Z,12.90
2022-11-07T02:44:37.298Z,12.90
2022-11-07T02:47:05.556Z,12.90
2022-11-07T02:49:33.530Z,12.90
2022-11-07T02:52:01.716Z,12.90
2022-11-07T02:54:29.648Z,12.90
2022-11-07T02:56:58.950Z,12.80
2022-11-07T02:59:27.341Z,12.70
2022-11-07T03:01:55.527Z,12.80
2022-11-07T03:04:46.631Z,12.80
2022-11-07T03:07:17.100Z,12.70
2022-11-07T03:09:45.122Z,12.60
2022-11-07T03:12:14.602Z,12.70
2022-11-07T03:14:42.769Z,12.80
2022-11-07T03:17:11.127Z,12.80
2022-11-07T03:19:39.104Z,12.90
2022-11-07T03:22:07.106Z,12.70
2022-11-07T03:24:35.189Z,12.70
2022-11-07T03:27:03.165Z,12.70
2022-11-07T03:29:32.478Z,12.80
2022-11-07T03:32:00.459Z,12.90
2022-11-07T03:34:28.532Z,13.00
2022-11-07T03:36:56.497Z,13.10
2022-11-07T03:39:26.061Z,13.10
2022-11-07T03:41:54.147Z,13.10
2022-11-07T03:44:22.059Z,13.10
2022-11-07T03:46:51.513Z,13.10
2022-11-07T03:49:19.495Z,13.00
2022-11-07T03:51:47.435Z,12.90
2022-11-07T03:54:15.405Z,12.80
2022-11-07T03:56:43.326Z,12.70
2022-11-07T03:59:11.298Z,12.60
2022-11-07T04:01:39.406Z,12.50
2022-11-07T04:04:10.331Z,12.50
2022-11-07T04:06:38.269Z,12.60
2022-11-07T04:09:06.725Z,12.70
2022-11-07T04:11:52.054Z,12.70
2022-11-07T04:14:37.449Z,12.50
2022-11-07T04:17:21.776Z,12.50
2022-11-07T04:19:54.735Z,12.50
2022-11-07T04:22:23.211Z,12.50
2022-11-07T04:24:51.242Z,12.40
2022-11-07T04:27:37.592Z,12.40
2022-11-07T04:30:20.086Z,12.50
2022-11-07T04:32:49.001Z,12.60
2022-11-07T04:35:19.499Z,12.90
2022-11-07T04:37:48.396Z,12.80
2022-11-07T04:40:17.277Z,12.80
2022-11-07T04:42:45.783Z,13.10
2022-11-07T04:45:14.451Z,13.00
2022-11-07T04:47:42.625Z,13.10
2022-11-07T04:50:12.798Z,13.10
2022-11-07T04:52:42.578Z,13.10
2022-11-07T04:55:18.530Z,13.20
2022-11-07T04:57:46.530Z,13.10
2022-11-07T05:00:15.752Z,13.10
2022-11-07T05:02:43.857Z,13.20
2022-11-07T05:05:13.081Z,13.30
2022-11-07T05:07:42.467Z,13.30
2022-11-07T05:10:17.951Z,13.20
2022-11-07T05:12:45.943Z,13.20
2022-11-07T05:15:14.845Z,13.10
2022-11-07T05:17:42.884Z,13.10
2022-11-07T05:20:26.796Z,13.00
2022-11-07T05:23:17.671Z,13.00
2022-11-07T05:25:47.891Z,13.10
2022-11-07T05:28:17.298Z,13.00
2022-11-07T05:30:46.584Z,13.00
2022-11-07T05:33:17.446Z,13.00
2022-11-07T05:35:46.639Z,13.10
2022-11-07T05:38:16.071Z,13.10
2022-11-07T05:40:44.164Z,13.10
2022-11-07T05:43:14.506Z,13.10
2022-11-07T05:45:42.897Z,13.30
2022-11-07T05:48:13.381Z,13.10
2022-11-07T05:50:41.991Z,13.10
2022-11-07T05:53:10.109Z,13.10
2022-11-07T05:55:39.826Z,13.10
2022-11-07T05:58:12.469Z,13.10
2022-11-07T06:00:41.823Z,13.20
2022-11-07T06:03:11.279Z,13.10
2022-11-07T06:05:40.012Z,13.20
2022-11-07T06:08:10.690Z,13.30
2022-11-07T06:10:41.430Z,13.20
2022-11-07T06:13:12.830Z,13.10
2022-11-07T06:15:41.890Z,13.10
2022-11-07T06:18:13.975Z,13.00
2022-11-07T06:20:42.135Z,13.20
2022-11-07T06:23:10.825Z,13.10
2022-11-07T06:25:40.271Z,13.00
2022-11-07T06:28:10.348Z,13.10
2022-11-07T06:30:38.498Z,13.10
2022-11-07T06:33:10.007Z,13.10
2022-11-07T06:35:38.059Z,13.10
2022-11-07T06:38:08.733Z,13.20
2022-11-07T06:40:37.301Z,13.00
2022-11-07T06:43:11.887Z,12.90
2022-11-07T06:45:40.177Z,12.90
2022-11-07T06:48:08.780Z,12.90
2022-11-07T06:50:37.638Z,12.80
2022-11-07T06:53:07.767Z,12.70
2022-11-07T06:55:36.610Z,12.80
2022-11-07T06:58:05.273Z,12.70
2022-11-07T07:00:36.166Z,12.70
2022-11-07T07:03:04.777Z,12.70
2022-11-07T07:05:34.065Z,12.70
2022-11-07T07:08:02.297Z,12.80
2022-11-07T07:10:30.625Z,12.90
2022-11-07T07:12:58.688Z,12.90
2022-11-07T07:15:26.743Z,12.90
2022-11-07T07:17:59.607Z,13.00
2022-11-07T07:20:27.728Z,13.10
2022-11-07T07:23:01.437Z,13.10
2022-11-07T07:25:32.525Z,13.20
2022-11-07T07:28:00.488Z,13.30
2022-11-07T07:30:28.858Z,13.30
2022-11-07T07:32:58.191Z,13.30
2022-11-07T07:35:26.385Z,13.30
2022-11-07T07:37:54.530Z,13.40
2022-11-07T07:40:22.973Z,13.40
2022-11-07T07:42:51.024Z,13.40
2022-11-07T07:45:19.132Z,13.50
2022-11-07T07:47:47.299Z,13.60
2022-11-07T07:50:16.815Z,13.70
2022-11-07T07:52:44.870Z,13.90
2022-11-07T07:55:12.943Z,14.00
2022-11-07T07:57:42.398Z,14.10
2022-11-07T08:00:12.645Z,14.10
2022-11-07T08:02:43.374Z,14.20
2022-11-07T08:05:12.738Z,14.20
2022-11-07T08:07:49.489Z,14.30
2022-11-07T08:13:06.452Z,14.10
2022-11-07T08:15:34.668Z,14.30
2022-11-07T08:18:03.365Z,14.30
2022-11-07T08:20:31.408Z,14.40
2022-11-07T08:23:03.290Z,14.40
2022-11-07T08:25:31.906Z,14.40
2022-11-07T08:27:59.960Z,14.50
2022-11-07T08:30:28.364Z,14.60
2022-11-07T08:32:56.644Z,14.50
2022-11-07T08:35:25.747Z,14.50
2022-11-07T08:37:54.208Z,14.50
2022-11-07T08:40:24.042Z,14.50
2022-11-07T08:42:52.023Z,14.40
2022-11-07T08:45:20.556Z,14.50
2022-11-07T08:47:48.600Z,14.50
2022-11-07T08:50:17.028Z,14.40
2022-11-07T08:52:45.130Z,14.40
2022-11-07T08:55:13.105Z,14.30
2022-11-07T08:57:42.653Z,14.30
2022-11-07T09:00:12.322Z,14.40
2022-11-07T09:03:23.947Z,14.40
2022-11-07T09:05:28.341Z,14.60
2022-11-07T09:07:56.393Z,14.70
2022-11-07T09:10:25.125Z,14.60
2022-11-07T09:12:54.492Z,14.60
2022-11-07T09:15:23.079Z,14.70
2022-11-07T09:17:51.299Z,14.80
2022-11-07T09:20:19.749Z,14.90
2022-11-07T09:22:48.268Z,15.00
2022-11-07T09:25:16.346Z,15.10
2022-11-07T09:27:44.854Z,15.00
2022-11-07T09:30:15.136Z,15.10
2022-11-07T09:32:45.691Z,15.10
2022-11-07T09:35:14.242Z,15.10
2022-11-07T09:37:43.103Z,15.00
2022-11-07T09:40:24.330Z,15.00
2022-11-07T09:43:07.321Z,15.10
2022-11-07T09:45:44.424Z,15.00
2022-11-07T09:48:20.877Z,15.20
2022-11-07T09:50:50.232Z,15.10
2022-11-07T09:53:24.737Z,15.20
2022-11-07T09:55:55.269Z,15.20
2022-11-07T09:58:27.708Z,15.20
2022-11-07T10:01:01.380Z,15.20
2022-11-07T10:03:29.639Z,15.30
2022-11-07T10:06:07.199Z,15.50
2022-11-07T10:08:41.705Z,15.30
2022-11-07T10:11:15.198Z,15.40
2022-11-07T10:14:00.641Z,15.10
2022-11-07T10:16:39.257Z,15.10
2022-11-07T10:19:22.498Z,15.20
2022-11-07T10:22:00.310Z,15.20
2022-11-07T10:24:37.566Z,15.20
2022-11-07T10:27:10.470Z,15.20
2022-11-07T10:29:46.946Z,15.20
2022-11-07T10:32:25.122Z,15.20
2022-11-07T10:35:02.187Z,15.30
2022-11-07T10:37:30.714Z,15.50
2022-11-07T10:39:58.747Z,15.50
2022-11-07T10:42:30.996Z,15.40
2022-11-07T10:45:00.592Z,15.40
2022-11-07T10:47:29.946Z,15.40
2022-11-07T10:50:00.038Z,15.70
2022-11-07T10:52:29.772Z,15.80
2022-11-07T10:55:08.884Z,15.80
2022-11-07T10:57:37.175Z,15.70
2022-11-07T11:00:19.495Z,15.80
2022-11-07T11:02:51.062Z,15.80
2022-11-07T11:05:24.596Z,15.60
2022-11-07T11:07:53.358Z,15.50
2022-11-07T11:10:23.246Z,15.50
2022-11-07T11:12:51.357Z,15.60
2022-11-07T11:15:21.526Z,15.70
2022-11-07T11:17:59.743Z,15.70
2022-11-07T11:20:38.191Z,15.90
2022-11-07T11:23:08.980Z,16.00
2022-11-07T11:25:47.131Z,16.00
2022-11-07T11:28:22.598Z,16.30
2022-11-07T11:30:58.040Z,16.20
2022-11-07T11:33:33.051Z,16.30
2022-11-07T11:36:07.877Z,16.10
2022-11-07T11:38:37.758Z,16.10
2022-11-07T11:41:15.000Z,16.20
2022-11-07T11:43:47.638Z,16.10
2022-11-07T11:46:22.905Z,16.40
2022-11-07T11:48:56.803Z,16.30
2022-11-07T11:51:34.684Z,16.40
2022-11-07T11:54:03.270Z,16.70
2022-11-07T11:56:42.969Z,16.80
2022-11-07T11:59:40.327Z,16.80
2022-11-07T12:02:32.756Z,16.90
2022-11-07T12:05:12.421Z,16.80
2022-11-07T12:07:52.767Z,16.60
2022-11-07T12:10:27.349Z,16.30
2022-11-07T12:13:07.681Z,16.40
2022-11-07T12:15:45.518Z,16.40
2022-11-07T12:18:23.190Z,16.50
2022-11-07T12:21:03.236Z,16.70
2022-11-07T12:23:55.063Z,16.30
2022-11-07T12:26:29.569Z,16.30
2022-11-07T12:29:04.978Z,16.20
2022-11-07T12:31:58.710Z,16.20
2022-11-07T12:34:40.085Z,16.30
2022-11-07T12:37:29.222Z,16.30
2022-11-07T12:40:14.779Z,16.30
2022-11-07T12:43:00.249Z,16.30
2022-11-07T12:45:42.336Z,16.20
2022-11-07T12:48:27.812Z,16.30
2022-11-07T12:51:03.960Z,16.50
2022-11-07T12:53:46.409Z,16.70
2022-11-07T12:56:18.371Z,17.00
2022-11-07T12:58:48.354Z,17.10
2022-11-07T13:01:22.305Z,17.40
2022-11-07T13:04:01.368Z,17.60
2022-11-07T13:06:34.419Z,17.40
2022-11-07T13:09:14.277Z,17.30
2022-11-07T13:11:50.076Z,17.50
2022-11-07T13:14:33.612Z,17.60
2022-11-07T13:17:13.745Z,17.70
2022-11-07T13:19:43.902Z,17.30
2022-11-07T13:22:23.849Z,17.20
2022-11-07T13:25:09.427Z,17.10
2022-11-07T13:27:41.647Z,17.00
2022-11-07T13:30:20.683Z,16.90
2022-11-07T13:32:50.453Z,16.80
2022-11-07T13:35:29.421Z,16.80
2022-11-07T13:38:05.922Z,16.90
2022-11-07T13:40:41.066Z,16.80
2022-11-07T13:43:14.763Z,16.70
2022-11-07T13:45:48.821Z,16.60
2022-11-07T13:48:21.371Z,16.70
2022-11-07T13:50:58.877Z,16.80
2022-11-07T13:53:33.353Z,17.00
2022-11-07T13:56:10.480Z,17.10
2022-11-07T13:58:42.869Z,17.00
2022-11-07T14:01:12.852Z,17.00
2022-11-07T14:03:41.043Z,16.80
2022-11-07T14:06:14.140Z,16.70
2022-11-07T14:08:45.709Z,16.80
2022-11-07T14:11:19.071Z,16.70
2022-11-07T14:13:49.844Z,16.80
2022-11-07T14:16:22.180Z,16.90
2022-11-07T14:18:55.549Z,16.90
2022-11-07T14:21:27.037Z,16.90
2022-11-07T14:23:55.399Z,16.90
2022-11-07T14:26:28.254Z,16.60
2022-11-07T14:28:57.634Z,16.90
2022-11-07T14:31:28.316Z,16.90
2022-11-07T14:33:58.488Z,16.90
2022-11-07T14:36:27.148Z,17.20
2022-11-07T14:39:00.778Z,16.80
2022-11-07T14:41:31.133Z,16.80
2022-11-07T14:44:03.695Z,16.70
2022-11-07T14:46:32.433Z,16.70
2022-11-07T14:49:00.818Z,16.70
2022-11-07T14:51:30.173Z,16.80
2022-11-07T14:54:01.327Z,16.90
2022-11-07T14:56:33.745Z,16.90
2022-11-07T14:59:02.112Z,17.00
2022-11-07T15:01:32.861Z,17.20
2022-11-07T15:04:04.936Z,17.20
2022-11-07T15:06:35.822Z,17.20
2022-11-07T15:09:06.246Z,17.20
2022-11-07T15:11:37.580Z,16.90
2022-11-07T15:14:21.509Z,17.00
2022-11-07T15:16:51.503Z,16.70
2022-11-07T15:19:20.792Z,16.70
2022-11-07T15:21:52.915Z,16.60
2022-11-07T15:24:41.850Z,16.60
2022-11-07T15:27:34.251Z,16.70
2022-11-07T15:30:03.146Z,16.90
2022-11-07T15:37:45.254Z,16.80
2022-11-07T15:40:15.853Z,16.70
2022-11-07T15:42:45.729Z,16.80
2022-11-07T15:45:14.146Z,16.80
2022-11-07T15:47:42.783Z,16.80
2022-11-07T15:50:16.425Z,16.70
2022-11-07T15:52:45.232Z,16.70
2022-11-07T15:55:15.358Z,16.70
2022-11-07T15:57:46.912Z,16.80
2022-11-07T16:00:16.059Z,16.80
2022-11-07T16:02:48.351Z,16.90
2022-11-07T16:05:17.221Z,16.90
2022-11-07T16:07:46.229Z,17.00
2022-11-07T16:10:18.297Z,17.00
2022-11-07T16:12:48.032Z,17.00
2022-11-07T16:15:16.692Z,17.00
2022-11-07T16:17:45.065Z,17.00
2022-11-07T16:20:15.547Z,17.00
2022-11-07T16:22:44.091Z,16.90
2022-11-07T16:25:20.335Z,16.80
2022-11-07T16:27:52.329Z,16.80
2022-11-07T16:30:39.667Z,16.80
2022-11-07T16:33:10.520Z,16.70
2022-11-07T16:35:58.305Z,16.70
2022-11-07T16:38:30.215Z,16.60
2022-11-07T16:41:03.016Z,16.40
2022-11-07T16:43:35.318Z,16.20
2022-11-07T16:46:04.000Z,16.00
2022-11-07T16:48:42.189Z,16.00
2022-11-07T16:51:15.428Z,15.90
2022-11-07T16:53:56.707Z,15.90
2022-11-07T16:56:32.158Z,15.80
2022-11-07T16:59:02.129Z,15.70
2022-11-07T17:01:31.368Z,15.70
2022-11-07T17:03:59.911Z,15.70
2022-11-07T17:06:32.362Z,15.70
2022-11-07T17:09:07.428Z,15.90
2022-11-07T17:11:39.416Z,15.80
2022-11-07T17:14:09.545Z,15.80
2022-11-07T17:16:38.161Z,15.70
2022-11-07T17:19:07.848Z,15.70
2022-11-07T17:26:14.648Z,15.90
2022-11-07T17:33:04.868Z,15.60
2022-11-07T17:46:33.884Z,15.40
2022-11-07T17:49:06.849Z,15.40
2022-11-07T18:12:45.682Z,15.30
2022-11-07T18:15:14.268Z,15.30
2022-11-07T18:17:45.406Z,15.30
2022-11-07T18:20:16.327Z,15.20
2022-11-07T18:26:59.000Z,15.10
2022-11-07T18:34:01.986Z,15.10
2022-11-07T18:36:46.393Z,15.10
2022-11-07T18:40:03.400Z,15.10
2022-11-07T18:47:19.181Z,14.80
2022-11-07T18:50:32.670Z,14.80
2022-11-07T19:00:46.996Z,14.90
2022-11-07T19:08:24.885Z,14.80
2022-11-07T19:47:21.466Z,14.10
2022-11-07T19:49:53.080Z,13.90
2022-11-07T19:52:30.505Z,13.90
2022-11-07T19:55:00.259Z,13.80
2022-11-07T19:57:31.806Z,13.90
2022-11-07T20:02:30.482Z,14.00
2022-11-07T20:04:31.518Z,14.10
2022-11-07T20:11:42.937Z,13.90
2022-11-07T20:14:49.882Z,13.70
2022-11-07T20:18:02.085Z,13.80
2022-11-07T20:20:34.326Z,13.60
2022-11-07T21:21:56.012Z,13.70
2022-11-07T22:27:53.708Z,13.40
2022-11-07T22:30:22.022Z,13.20
2022-11-07T22:32:51.860Z,13.20
2022-11-07T22:35:20.174Z,13.10
2022-11-07T22:37:48.449Z,13.10
2022-11-07T22:40:20.233Z,13.10
2022-11-07T22:42:48.774Z,13.00
2022-11-07T22:45:18.649Z,13.00
2022-11-07T22:47:46.850Z,12.90
2022-11-07T22:50:15.009Z,12.90
2022-11-07T22:52:43.184Z,12.90
2022-11-07T22:55:11.311Z,12.80
2022-11-07T22:57:40.777Z,12.70
2022-11-07T23:00:20.834Z,12.60
2022-11-07T23:02:51.472Z,12.50
2022-11-07T23:05:19.757Z,12.60
2022-11-07T23:07:50.231Z,12.60
2022-11-07T23:10:18.552Z,12.70
2022-11-07T23:12:47.077Z,12.60
2022-11-07T23:15:15.233Z,12.50
2022-11-07T23:17:43.501Z,12.40
2022-11-07T23:20:34.225Z,12.40
2022-11-07T23:23:03.441Z,12.30
2022-11-07T23:25:31.699Z,12.40
2022-11-07T23:27:59.899Z,12.50
2022-11-07T23:30:28.130Z,12.50
2022-11-07T23:32:56.328Z,12.40
2022-11-07T23:35:25.897Z,12.40
2022-11-07T23:37:54.115Z,12.40
2022-11-07T23:40:22.315Z,12.30
2022-11-07T23:42:50.913Z,12.40
2022-11-07T23:45:36.464Z,12.30
2022-11-07T23:48:22.274Z,12.30
2022-11-07T23:51:03.471Z,12.20
2022-11-07T23:53:49.602Z,12.10
2022-11-07T23:56:18.174Z,12.10
2022-11-07T23:59:03.971Z,12.10
